Blue Wave — 5BGC3 — position and weather

sailwx.info

Track history (hours):
 
Tides and Currents Weather Stations Pressure Air Temp Water Temp Dewpoint Dewpoint Depression Visibility Wind Speed Wind Dir Waves Ship Positions

Blue Wave

Last reported at 2017-Nov-17 04:40 UTC. Time now 2017-Nov-23 20:43 UTC.
Position N 49°37' W 004°03'.

Length 229 m; draft 7.9 m.

Type: Cargo ship. MMSI: 209722000.

Date/timePositionNaut miles runAvg speedWind from/ knotsBaromVisibWave heightAir tempDewpointWater temp
2017-Nov-17 04:40N 49°37' W 004°03'413.0
2017-Nov-17 04:21N 49°39' W 003°57'713.1
2017-Nov-17 03:48N 49°43' W 003°47'413.3
2017-Nov-17 03:29N 49°44' W 003°42'713.6
2017-Nov-17 03:00N 49°47' W 003°33'714.1
2017-Nov-17 02:30N 49°51' W 003°23'714.8
2017-Nov-17 02:00N 49°54' W 003°13'815.7
2017-Nov-17 01:30N 49°57' W 003°02'816.1
2017-Nov-17 01:00N 50°01' W 002°50'816.8
2017-Nov-17 00:30N 50°03' W 002°38'2017.2
2017-Nov-16 23:20N 50°08' W 002°08'516.6
2017-Nov-16 23:00N 50°10' W 001°59'815.9
2017-Nov-16 22:30N 50°12' W 001°48'815.0
2017-Nov-16 22:00N 50°14' W 001°36'714.1
2017-Nov-16 21:31N 50°15' W 001°25'713.3
2017-Nov-16 21:00N 50°17' W 001°15'912.2
2017-Nov-16 20:14N 50°20' W 001°01'611.4
2017-Nov-16 19:43N 50°22' W 000°52'210.9
2017-Nov-16 19:30N 50°22' W 000°49'610.9
2017-Nov-16 18:59N 50°24' W 000°40'511.0
2017-Nov-16 18:29N 50°25' W 000°32'611.5
2017-Nov-16 18:00N 50°27' W 000°24'612.3
2017-Nov-16 17:31N 50°28' W 000°14'713.0
2017-Nov-16 17:00N 50°30' W 000°04'713.5
2017-Nov-16 16:30N 50°32' E 000°06'714.1
2017-Nov-16 16:01N 50°34' E 000°16'714.4
2017-Nov-16 15:31N 50°36' E 000°27'714.6
2017-Nov-16 15:01N 50°38' E 000°38'714.5
2017-Nov-16 14:31N 50°42' E 000°48'714.0
2017-Nov-16 14:00N 50°46' E 000°57'713.6
2017-Nov-16 13:30N 50°49' E 001°07'713.1
2017-Nov-16 13:00N 50°53' E 001°15'612.4
2017-Nov-16 12:30N 50°58' E 001°22'611.8
2017-Nov-16 12:00N 51°02' E 001°27'5 9.5
2017-Nov-16 11:30N 51°05' E 001°33'510.5
2017-Nov-16 11:00N 51°09' E 001°39'611.1
2017-Nov-16 10:30N 51°13' E 001°46'611.9
2017-Nov-16 10:00N 51°18' E 001°50'612.6
2017-Nov-16 09:30N 51°23' E 001°56'713.5
2017-Nov-16 09:01N 51°29' E 002°02'714.5
2017-Nov-16 08:31N 51°34' E 002°09'815.0
2017-Nov-16 08:00N 51°40' E 002°17'8814.1
2017-Nov-16 01:47N 52°49' E 003°46'1712.7
2017-Nov-16 00:27N 53°01' E 004°06'613.4
2017-Nov-16 00:00N 53°05' E 004°13'1014.0
2017-Nov-15 23:19N 53°12' E 004°25'  
2017-Nov-12 13:09N 54°00' E 007°39'3 7.2
2017-Nov-12 12:44N 53°58' E 007°41'2 8.2
2017-Nov-12 12:30N 53°56' E 007°42'7 9.8
2017-Nov-12 11:49N 53°52' E 007°52'2 7.4
2017-Nov-12 11:30N 53°50' E 007°53'612.3
2017-Nov-12 11:00N 53°47' E 008°02'714.1
2017-Nov-12 10:30N 53°40' E 008°06'611.4
2017-Nov-12 10:00N 53°35' E 008°10'0 0.3
2017-Nov-12 09:29N 53°35' E 008°09'0 0.0
2017-Nov-12 08:59N 53°35' E 008°09'0 0.0
2017-Nov-12 08:26N 53°35' E 008°09'0 0.0
2017-Nov-12 07:59N 53°35' E 008°09'0 0.0
2017-Nov-12 07:29N 53°35' E 008°09'0 0.0
2017-Nov-12 06:59N 53°35' E 008°09'0 0.0
2017-Nov-12 06:29N 53°35' E 008°09'0 0.0
2017-Nov-12 05:59N 53°35' E 008°09'0 0.0
2017-Nov-12 05:29N 53°35' E 008°09'0 0.0
2017-Nov-12 04:59N 53°35' E 008°09'0 0.0
2017-Nov-12 04:29N 53°35' E 008°09'0 0.0
2017-Nov-12 03:59N 53°35' E 008°09'0 0.0
2017-Nov-12 03:26N 53°35' E 008°09'0 0.0
2017-Nov-12 02:59N 53°35' E 008°09'0 0.0
2017-Nov-12 02:29N 53°35' E 008°09'0 0.0
2017-Nov-12 01:59N 53°35' E 008°09'0 0.0
2017-Nov-12 01:29N 53°35' E 008°09'0 0.0
2017-Nov-12 00:56N 53°35' E 008°09'0 0.0
2017-Nov-12 00:29N 53°35' E 008°09'0 0.0
2017-Nov-11 23:59N 53°35' E 008°09'0 0.0
2017-Nov-11 23:29N 53°35' E 008°09'0 0.0
2017-Nov-11 22:59N 53°35' E 008°09'0 0.0
2017-Nov-11 22:29N 53°35' E 008°09'0 0.0
2017-Nov-11 21:59N 53°35' E 008°09'0 0.0
2017-Nov-11 21:29N 53°35' E 008°09'0 0.0
2017-Nov-11 20:59N 53°35' E 008°09'0 0.0
2017-Nov-11 20:29N 53°35' E 008°09'0 0.0
2017-Nov-11 19:59N 53°35' E 008°09'0 0.0
2017-Nov-11 19:29N 53°35' E 008°09'0 0.0
2017-Nov-11 18:59N 53°35' E 008°09'0 0.0
2017-Nov-11 18:29N 53°35' E 008°09'0 0.0
2017-Nov-11 17:59N 53°35' E 008°09'0 0.0
2017-Nov-11 17:29N 53°35' E 008°09'0 0.0
2017-Nov-11 16:59N 53°35' E 008°09'0 0.0
2017-Nov-11 16:23N 53°35' E 008°09'0 0.0
2017-Nov-11 15:59N 53°35' E 008°09'0 0.0
2017-Nov-11 15:29N 53°35' E 008°09'0 0.0
2017-Nov-11 14:59N 53°35' E 008°09'0 0.0
2017-Nov-11 14:29N 53°35' E 008°09'0 0.0
2017-Nov-11 13:59N 53°35' E 008°09'0 0.0
2017-Nov-11 13:29N 53°35' E 008°09'0 0.0
2017-Nov-11 12:59N 53°35' E 008°09'0 0.0
2017-Nov-11 12:29N 53°35' E 008°09'0 0.0
2017-Nov-11 11:59N 53°35' E 008°09'0 0.0
2017-Nov-11 11:29N 53°35' E 008°09'0 0.0
2017-Nov-11 10:58N 53°35' E 008°09'0 0.0
2017-Nov-11 10:29N 53°35' E 008°09'0 0.0
2017-Nov-11 09:59N 53°35' E 008°09'0 0.0
2017-Nov-11 09:29N 53°35' E 008°09'0 0.0
2017-Nov-11 08:59N 53°35' E 008°09'0 0.0
2017-Nov-11 08:29N 53°35' E 008°09'0 0.0
2017-Nov-11 07:58N 53°35' E 008°09'0 0.0
2017-Nov-11 07:29N 53°35' E 008°09'0 0.0
2017-Nov-11 06:58N 53°35' E 008°09'0 0.0
2017-Nov-11 06:29N 53°35' E 008°09'0 0.0
2017-Nov-11 05:56N 53°35' E 008°09'0 0.0
2017-Nov-11 05:28N 53°35' E 008°09'0 0.0
2017-Nov-11 04:59N 53°35' E 008°09'0 0.0
2017-Nov-11 04:29N 53°35' E 008°09'0 0.0
2017-Nov-11 03:59N 53°35' E 008°09'0 0.0
2017-Nov-11 03:28N 53°35' E 008°09'0 0.0
2017-Nov-11 02:59N 53°35' E 008°09'0 0.0
2017-Nov-11 02:29N 53°35' E 008°09'0 0.0
2017-Nov-11 01:58N 53°35' E 008°09'0 0.0
2017-Nov-11 01:28N 53°35' E 008°09'0 0.0
2017-Nov-11 00:58N 53°35' E 008°09'0 0.0
2017-Nov-11 00:28N 53°35' E 008°09'0 0.0
2017-Nov-10 23:59N 53°35' E 008°09'0 0.0
2017-Nov-10 23:29N 53°35' E 008°09'0 0.0
2017-Nov-10 22:59N 53°35' E 008°09'0 0.0
2017-Nov-10 22:28N 53°35' E 008°09'0 0.0
2017-Nov-10 21:58N 53°35' E 008°09'0 0.0
2017-Nov-10 21:28N 53°35' E 008°09'0 0.0
2017-Nov-10 20:59N 53°35' E 008°09'0 0.0
2017-Nov-10 20:28N 53°35' E 008°09'0 0.0
2017-Nov-10 19:56N 53°35' E 008°09'0 0.0
2017-Nov-10 19:26N 53°35' E 008°09'0 0.0
2017-Nov-10 18:56N 53°35' E 008°09'0 0.0
2017-Nov-10 18:25N 53°35' E 008°09'0 0.0
2017-Nov-10 17:58N 53°35' E 008°09'0 0.0
2017-Nov-10 17:28N 53°35' E 008°09'0 0.0
2017-Nov-10 16:58N 53°35' E 008°09'0 0.0
2017-Nov-10 16:28N 53°35' E 008°09'0 0.0
2017-Nov-10 15:58N 53°35' E 008°09'0 0.0
2017-Nov-10 15:26N 53°35' E 008°09'0 0.0
2017-Nov-10 14:56N 53°35' E 008°09'0 0.0
2017-Nov-10 14:25N 53°35' E 008°09'0 0.0
2017-Nov-10 13:58N 53°35' E 008°09'0 0.0
2017-Nov-10 13:28N 53°35' E 008°09'0 0.0
2017-Nov-10 12:58N 53°35' E 008°09'0 0.0
2017-Nov-10 12:28N 53°35' E 008°09'0 0.0
2017-Nov-10 11:58N 53°35' E 008°09'0 0.0
2017-Nov-10 11:28N 53°35' E 008°09'0 0.0
2017-Nov-10 10:58N 53°35' E 008°09'0 0.0
2017-Nov-10 10:30N 53°35' E 008°09'0 0.5
2017-Nov-10 10:00N 53°35' E 008°10'2 5.0
2017-Nov-10 09:30N 53°38' E 008°09'4 8.0
2017-Nov-10 09:00N 53°41' E 008°05'5 9.9
2017-Nov-10 08:30N 53°46' E 008°03'4 8.2
2017-Nov-10 08:00N 53°49' E 007°58'6 9.7
2017-Nov-10 07:24N 53°51' E 007°49'410.0
2017-Nov-10 06:59N 53°53' E 007°43'71 2.1
2017-Nov-08 21:25N 54°57' E 006°48'711.2
2017-Nov-08 20:49N 55°04' E 006°45'411.0
2017-Nov-08 20:29N 55°07' E 006°44'611.0
2017-Nov-08 19:57N 55°13' E 006°42'84 9.9
2017-Nov-08 11:27N 56°36' E 006°57'4 8.5
2017-Nov-08 10:59N 56°40' E 006°59'5 8.4
2017-Nov-08 10:23N 56°45' E 007°00'12910.1
2017-Nov-07 21:31N 57°49' E 010°28'111.2
2017-Nov-07 21:27N 57°49' E 010°30'511.1
2017-Nov-07 21:00N 57°49' E 010°39'510.7
2017-Nov-07 20:30N 57°48' E 010°49'611.2
2017-Nov-07 20:00N 57°45' E 010°58'611.2
2017-Nov-07 19:30N 57°43' E 011°07'611.7
2017-Nov-07 19:00N 57°39' E 011°17'611.5
2017-Nov-07 18:30N 57°36' E 011°25'510.8
2017-Nov-07 18:00N 57°34' E 011°34'3 5.2
2017-Nov-07 17:27N 57°34' E 011°40'0 0.1
2017-Nov-07 16:45N 57°34' E 011°40'0 0.0
2017-Nov-07 16:27N 57°34' E 011°40'0 0.0
2017-Nov-07 15:58N 57°34' E 011°40'0 0.0
2017-Nov-07 15:27N 57°34' E 011°40'0 0.0
2017-Nov-07 14:51N 57°34' E 011°40'0 0.0
2017-Nov-07 14:31N 57°34' E 011°40'0 0.0
2017-Nov-07 14:00N 57°34' E 011°40'0 0.0
2017-Nov-07 13:27N 57°34' E 011°40'1 1.4
2017-Nov-07 13:00N 57°33' E 011°40'510.1
2017-Nov-07 12:30N 57°29' E 011°36'613.0
2017-Nov-07 12:00N 57°22' E 011°35'713.0
2017-Nov-07 11:30N 57°16' E 011°35'713.5
2017-Nov-07 11:00N 57°09' E 011°38'  
Track history (hours):
 
Tides and Currents Weather Stations Pressure Air Temp Water Temp Dewpoint Dewpoint Depression Visibility Wind Speed Wind Dir Waves Ship Positions

Blue Wave

Last reported at 2017-Nov-17 04:40 UTC. Time now 2017-Nov-23 20:43 UTC.
Position N 49°37' W 004°03'.

Length 229 m; draft 7.9 m.

Type: Cargo ship. MMSI: 209722000.

Date/timePositionNaut miles runAvg speedWind from/ knotsBaromVisibWave heightAir tempDewpointWater temp
2017-Nov-17 04:40N 49°37' W 004°03'413.0
2017-Nov-17 04:21N 49°39' W 003°57'713.1
2017-Nov-17 03:48N 49°43' W 003°47'413.3
2017-Nov-17 03:29N 49°44' W 003°42'713.6
2017-Nov-17 03:00N 49°47' W 003°33'714.1
2017-Nov-17 02:30N 49°51' W 003°23'714.8
2017-Nov-17 02:00N 49°54' W 003°13'815.7
2017-Nov-17 01:30N 49°57' W 003°02'816.1
2017-Nov-17 01:00N 50°01' W 002°50'816.8
2017-Nov-17 00:30N 50°03' W 002°38'2017.2
2017-Nov-16 23:20N 50°08' W 002°08'516.6
2017-Nov-16 23:00N 50°10' W 001°59'815.9
2017-Nov-16 22:30N 50°12' W 001°48'815.0
2017-Nov-16 22:00N 50°14' W 001°36'714.1
2017-Nov-16 21:31N 50°15' W 001°25'713.3
2017-Nov-16 21:00N 50°17' W 001°15'912.2
2017-Nov-16 20:14N 50°20' W 001°01'611.4
2017-Nov-16 19:43N 50°22' W 000°52'210.9
2017-Nov-16 19:30N 50°22' W 000°49'610.9
2017-Nov-16 18:59N 50°24' W 000°40'511.0
2017-Nov-16 18:29N 50°25' W 000°32'611.5
2017-Nov-16 18:00N 50°27' W 000°24'612.3
2017-Nov-16 17:31N 50°28' W 000°14'713.0
2017-Nov-16 17:00N 50°30' W 000°04'713.5
2017-Nov-16 16:30N 50°32' E 000°06'714.1
2017-Nov-16 16:01N 50°34' E 000°16'714.4
2017-Nov-16 15:31N 50°36' E 000°27'714.6
2017-Nov-16 15:01N 50°38' E 000°38'714.5
2017-Nov-16 14:31N 50°42' E 000°48'714.0
2017-Nov-16 14:00N 50°46' E 000°57'713.6
2017-Nov-16 13:30N 50°49' E 001°07'713.1
2017-Nov-16 13:00N 50°53' E 001°15'612.4
2017-Nov-16 12:30N 50°58' E 001°22'611.8
2017-Nov-16 12:00N 51°02' E 001°27'5 9.5
2017-Nov-16 11:30N 51°05' E 001°33'510.5
2017-Nov-16 11:00N 51°09' E 001°39'611.1
2017-Nov-16 10:30N 51°13' E 001°46'611.9
2017-Nov-16 10:00N 51°18' E 001°50'612.6
2017-Nov-16 09:30N 51°23' E 001°56'713.5
2017-Nov-16 09:01N 51°29' E 002°02'714.5
2017-Nov-16 08:31N 51°34' E 002°09'815.0
2017-Nov-16 08:00N 51°40' E 002°17'8814.1
2017-Nov-16 01:47N 52°49' E 003°46'1712.7
2017-Nov-16 00:27N 53°01' E 004°06'613.4
2017-Nov-16 00:00N 53°05' E 004°13'1014.0
2017-Nov-15 23:19N 53°12' E 004°25'  
2017-Nov-12 13:09N 54°00' E 007°39'3 7.2
2017-Nov-12 12:44N 53°58' E 007°41'2 8.2
2017-Nov-12 12:30N 53°56' E 007°42'7 9.8
2017-Nov-12 11:49N 53°52' E 007°52'2 7.4
2017-Nov-12 11:30N 53°50' E 007°53'612.3
2017-Nov-12 11:00N 53°47' E 008°02'714.1
2017-Nov-12 10:30N 53°40' E 008°06'611.4
2017-Nov-12 10:00N 53°35' E 008°10'0 0.3
2017-Nov-12 09:29N 53°35' E 008°09'0 0.0
2017-Nov-12 08:59N 53°35' E 008°09'0 0.0
2017-Nov-12 08:26N 53°35' E 008°09'0 0.0
2017-Nov-12 07:59N 53°35' E 008°09'0 0.0
2017-Nov-12 07:29N 53°35' E 008°09'0 0.0
2017-Nov-12 06:59N 53°35' E 008°09'0 0.0
2017-Nov-12 06:29N 53°35' E 008°09'0 0.0
2017-Nov-12 05:59N 53°35' E 008°09'0 0.0
2017-Nov-12 05:29N 53°35' E 008°09'0 0.0
2017-Nov-12 04:59N 53°35' E 008°09'0 0.0
2017-Nov-12 04:29N 53°35' E 008°09'0 0.0
2017-Nov-12 03:59N 53°35' E 008°09'0 0.0
2017-Nov-12 03:26N 53°35' E 008°09'0 0.0
2017-Nov-12 02:59N 53°35' E 008°09'0 0.0
2017-Nov-12 02:29N 53°35' E 008°09'0 0.0
2017-Nov-12 01:59N 53°35' E 008°09'0 0.0
2017-Nov-12 01:29N 53°35' E 008°09'0 0.0
2017-Nov-12 00:56N 53°35' E 008°09'0 0.0
2017-Nov-12 00:29N 53°35' E 008°09'0 0.0
2017-Nov-11 23:59N 53°35' E 008°09'0 0.0
2017-Nov-11 23:29N 53°35' E 008°09'0 0.0
2017-Nov-11 22:59N 53°35' E 008°09'0 0.0
2017-Nov-11 22:29N 53°35' E 008°09'0 0.0
2017-Nov-11 21:59N 53°35' E 008°09'0 0.0
2017-Nov-11 21:29N 53°35' E 008°09'0 0.0
2017-Nov-11 20:59N 53°35' E 008°09'0 0.0
2017-Nov-11 20:29N 53°35' E 008°09'0 0.0
2017-Nov-11 19:59N 53°35' E 008°09'0 0.0
2017-Nov-11 19:29N 53°35' E 008°09'0 0.0
2017-Nov-11 18:59N 53°35' E 008°09'0 0.0
2017-Nov-11 18:29N 53°35' E 008°09'0 0.0
2017-Nov-11 17:59N 53°35' E 008°09'0 0.0
2017-Nov-11 17:29N 53°35' E 008°09'0 0.0
2017-Nov-11 16:59N 53°35' E 008°09'0 0.0
2017-Nov-11 16:23N 53°35' E 008°09'0 0.0
2017-Nov-11 15:59N 53°35' E 008°09'0 0.0
2017-Nov-11 15:29N 53°35' E 008°09'0 0.0
2017-Nov-11 14:59N 53°35' E 008°09'0 0.0
2017-Nov-11 14:29N 53°35' E 008°09'0 0.0
2017-Nov-11 13:59N 53°35' E 008°09'0 0.0
2017-Nov-11 13:29N 53°35' E 008°09'0 0.0
2017-Nov-11 12:59N 53°35' E 008°09'0 0.0
2017-Nov-11 12:29N 53°35' E 008°09'0 0.0
2017-Nov-11 11:59N 53°35' E 008°09'0 0.0
2017-Nov-11 11:29N 53°35' E 008°09'0 0.0
2017-Nov-11 10:58N 53°35' E 008°09'0 0.0
2017-Nov-11 10:29N 53°35' E 008°09'0 0.0
2017-Nov-11 09:59N 53°35' E 008°09'0 0.0
2017-Nov-11 09:29N 53°35' E 008°09'0 0.0
2017-Nov-11 08:59N 53°35' E 008°09'0 0.0
2017-Nov-11 08:29N 53°35' E 008°09'0 0.0
2017-Nov-11 07:58N 53°35' E 008°09'0 0.0
2017-Nov-11 07:29N 53°35' E 008°09'0 0.0
2017-Nov-11 06:58N 53°35' E 008°09'0 0.0
2017-Nov-11 06:29N 53°35' E 008°09'0 0.0
2017-Nov-11 05:56N 53°35' E 008°09'0 0.0
2017-Nov-11 05:28N 53°35' E 008°09'0 0.0
2017-Nov-11 04:59N 53°35' E 008°09'0 0.0
2017-Nov-11 04:29N 53°35' E 008°09'0 0.0
2017-Nov-11 03:59N 53°35' E 008°09'0 0.0
2017-Nov-11 03:28N 53°35' E 008°09'0 0.0
2017-Nov-11 02:59N 53°35' E 008°09'0 0.0
2017-Nov-11 02:29N 53°35' E 008°09'0 0.0
2017-Nov-11 01:58N 53°35' E 008°09'0 0.0
2017-Nov-11 01:28N 53°35' E 008°09'0 0.0
2017-Nov-11 00:58N 53°35' E 008°09'0 0.0
2017-Nov-11 00:28N 53°35' E 008°09'0 0.0
2017-Nov-10 23:59N 53°35' E 008°09'0 0.0
2017-Nov-10 23:29N 53°35' E 008°09'0 0.0
2017-Nov-10 22:59N 53°35' E 008°09'0 0.0
2017-Nov-10 22:28N 53°35' E 008°09'0 0.0
2017-Nov-10 21:58N 53°35' E 008°09'0 0.0
2017-Nov-10 21:28N 53°35' E 008°09'0 0.0
2017-Nov-10 20:59N 53°35' E 008°09'0 0.0
2017-Nov-10 20:28N 53°35' E 008°09'0 0.0
2017-Nov-10 19:56N 53°35' E 008°09'0 0.0
2017-Nov-10 19:26N 53°35' E 008°09'0 0.0
2017-Nov-10 18:56N 53°35' E 008°09'0 0.0
2017-Nov-10 18:25N 53°35' E 008°09'0 0.0
2017-Nov-10 17:58N 53°35' E 008°09'0 0.0
2017-Nov-10 17:28N 53°35' E 008°09'0 0.0
2017-Nov-10 16:58N 53°35' E 008°09'0 0.0
2017-Nov-10 16:28N 53°35' E 008°09'0 0.0
2017-Nov-10 15:58N 53°35' E 008°09'0 0.0
2017-Nov-10 15:26N 53°35' E 008°09'0 0.0
2017-Nov-10 14:56N 53°35' E 008°09'0 0.0
2017-Nov-10 14:25N 53°35' E 008°09'0 0.0
2017-Nov-10 13:58N 53°35' E 008°09'0 0.0
2017-Nov-10 13:28N 53°35' E 008°09'0 0.0
2017-Nov-10 12:58N 53°35' E 008°09'0 0.0
2017-Nov-10 12:28N 53°35' E 008°09'0 0.0
2017-Nov-10 11:58N 53°35' E 008°09'0 0.0
2017-Nov-10 11:28N 53°35' E 008°09'0 0.0
2017-Nov-10 10:58N 53°35' E 008°09'0 0.0
2017-Nov-10 10:30N 53°35' E 008°09'0 0.5
2017-Nov-10 10:00N 53°35' E 008°10'2 5.0
2017-Nov-10 09:30N 53°38' E 008°09'4 8.0
2017-Nov-10 09:00N 53°41' E 008°05'5 9.9
2017-Nov-10 08:30N 53°46' E 008°03'4 8.2
2017-Nov-10 08:00N 53°49' E 007°58'6 9.7
2017-Nov-10 07:24N 53°51' E 007°49'410.0
2017-Nov-10 06:59N 53°53' E 007°43'71 2.1
2017-Nov-08 21:25N 54°57' E 006°48'711.2
2017-Nov-08 20:49N 55°04' E 006°45'411.0
2017-Nov-08 20:29N 55°07' E 006°44'611.0
2017-Nov-08 19:57N 55°13' E 006°42'84 9.9
2017-Nov-08 11:27N 56°36' E 006°57'4 8.5
2017-Nov-08 10:59N 56°40' E 006°59'5 8.4
2017-Nov-08 10:23N 56°45' E 007°00'12910.1
2017-Nov-07 21:31N 57°49' E 010°28'111.2
2017-Nov-07 21:27N 57°49' E 010°30'511.1
2017-Nov-07 21:00N 57°49' E 010°39'510.7
2017-Nov-07 20:30N 57°48' E 010°49'611.2
2017-Nov-07 20:00N 57°45' E 010°58'611.2
2017-Nov-07 19:30N 57°43' E 011°07'611.7
2017-Nov-07 19:00N 57°39' E 011°17'611.5
2017-Nov-07 18:30N 57°36' E 011°25'510.8
2017-Nov-07 18:00N 57°34' E 011°34'3 5.2
2017-Nov-07 17:27N 57°34' E 011°40'0 0.1
2017-Nov-07 16:45N 57°34' E 011°40'0 0.0
2017-Nov-07 16:27N 57°34' E 011°40'0 0.0
2017-Nov-07 15:58N 57°34' E 011°40'0 0.0
2017-Nov-07 15:27N 57°34' E 011°40'0 0.0
2017-Nov-07 14:51N 57°34' E 011°40'0 0.0
2017-Nov-07 14:31N 57°34' E 011°40'0 0.0
2017-Nov-07 14:00N 57°34' E 011°40'0 0.0
2017-Nov-07 13:27N 57°34' E 011°40'1 1.4
2017-Nov-07 13:00N 57°33' E 011°40'510.1
2017-Nov-07 12:30N 57°29' E 011°36'613.0
2017-Nov-07 12:00N 57°22' E 011°35'713.0
2017-Nov-07 11:30N 57°16' E 011°35'713.5
2017-Nov-07 11:00N 57°09' E 011°38'  

Dump ship's entire track history